Station info - map view · info · telemetry · weather · raw · status · beacons · messages · bulletins · browse · moving · my account
Callsign, ship name or locator: Clear       
It is possible to search using wildcards (*?) after a prefix. Example: OH*
APRS station KF5MIL-9 - show graphs
Map loading...
Comment: 146.520MHz
Mic-E message: Returning
Location: 35°30.93' N 98°00.17' W - locator EM05XM93PR - show map - static map
2.9 miles Southwest bearing 247° from El Reno, Canadian County, Oklahoma, United States [?]
9.2 miles North bearing 338° from Union City, Canadian County, Oklahoma, United States
27.5 miles West bearing 277° from Oklahoma City, Oklahoma County, Oklahoma, United States
37.6 miles Northwest bearing 303° from Norman, Cleveland County, Oklahoma, United States
Last position: 2017-07-19 17:38:34 EDT (8d 3h5m ago)
2017-07-19 16:38:34 CDT local time at El Reno, United States [?]
Altitude: 1368 ft
Course: 289°
Speed: 76 MPH
Device: Yaesu: FTM-400DR (rig)
Last path: KF5MIL-9>S53P9S via W5GDL-5,WIDE1*,WIDE2-1,qAR,W5LHG (good)
Positions stored: 1263
Other SSIDs: KF5MIL KF5MIL-7
Stations near current position of KF5MIL-9 - show more
callsign distance last heard - EDT      callsign distance last heard - EDT
KRQO3.0 miles 183°2017-07-13 20:12:24 OUNSVR1KA6.6 miles 6°2017-07-03 22:04:06
KG5GBP8.8 miles 156°2017-07-13 16:01:23 K0WHN-149.3 miles 56°2017-07-22 12:52:25
OUNSVRMeA14.7 miles 117°2017-07-27 19:50:09 NX5O15.2 miles 120°2017-07-15 22:35:31
NX5O-1015.2 miles 120°2017-07-15 22:11:33 EW727215.5 miles 117°2017-07-27 20:36:34
EW615816.0 miles 95°2017-07-27 18:37:49 K5MJM16.1 miles 73°2017-07-27 20:41:20
WA5FLT-916.5 miles 108°2017-07-26 11:42:24 OUNSVRMOA17.3 miles 117°2017-07-15 19:19:10
ACARC FD17.4 miles 116°2017-07-02 23:46:32 K5WTX18.8 miles 61°2017-07-27 20:40:14
OUNSVRN2A19.4 miles 105°2017-07-27 20:04:09 KG5FBO-519.5 miles 115°2017-07-25 22:48:27
EW632219.5 miles 115°2017-07-27 20:41:16 KG5FBO-919.5 miles 115°2017-07-08 21:43:07
KPWA19.9 miles 86°2017-07-13 20:12:09 KF5JRP-520.2 miles 78°2017-07-09 05:14:51
Stations which heard KF5MIL-9 directly on radio –
callsign pkts first heard - EDT last heard longest (tx => rx) longest at - EDT
KM5HG 2 2017-07-19 15:34:35 2017-07-19 15:37:20 EM26CD > EM26DG 9.3 miles 44° 2017-07-19 15:37:20
KTCHM 19 2017-07-14 13:33:16 2017-07-19 15:11:49 EM26RE > EM26KM 40.5 miles 309° 2017-07-14 14:18:15
DECATU 4 2017-07-14 14:28:29 2017-07-19 14:42:23 EM26MF > EM26SH 28.0 miles 77° 2017-07-19 14:42:23
MTHOME 253 2017-07-14 17:37:42 2017-07-19 11:04:42 EM36QB > EM36TI 23.1 miles 33° 2017-07-18 15:23:28
W5LHG 1 2017-07-19 17:26:04 2017-07-19 17:26:04 EM15DL > EM15DD 23.0 miles 173° 2017-07-19 17:26:04
WALSH 11 2017-07-14 07:50:13 2017-07-14 09:00:03 EM05NM > EM04HX 48.4 miles 220° 2017-07-14 09:00:03
CHICKA 6 2017-07-14 09:18:42 2017-07-14 10:26:36 EM05SM > EM15AB 42.7 miles 141° 2017-07-14 09:18:42
WD5MHZ-1 1 2017-07-14 16:27:27 2017-07-14 16:27:27 EM36HA > EM24TX 91.5 miles 217° 2017-07-14 16:27:27
WHTNY 45 2017-07-14 14:27:56 2017-07-19 14:09:54 EM36ID > EM36AJ 40.6 miles 297° 2017-07-14 16:43:39
CLRWTR 58 2017-07-14 13:46:42 2017-07-19 14:34:51 EM36HB > EM26UD 49.6 miles 277° 2017-07-14 16:30:40
KEETON 20 2017-07-14 11:47:29 2017-07-19 15:47:40 EM26RE > EM26DH 67.1 miles 279° 2017-07-14 14:16:58
STLWTR 1 2017-07-19 16:59:55 2017-07-19 16:59:55 EM15HO > EM16JC 35.1 miles 14° 2017-07-19 16:59:55
SKITOK 1 2017-07-19 15:40:37 2017-07-19 15:40:37 EM26BD > EM16XJ 17.1 miles 332° 2017-07-19 15:40:37
MOUNDS 8 2017-07-14 11:34:57 2017-07-19 16:27:07 EM15QS > EM15WU 30.7 miles 78° 2017-07-19 16:27:07
KF5JRV-1 14 2017-07-14 15:44:51 2017-07-19 12:26:25 EM36IC > EM36DB 23.1 miles 268° 2017-07-14 16:38:35
STULSA 4 2017-07-14 12:47:05 2017-07-19 16:05:25 EM15UW > EM26BB 21.7 miles 65° 2017-07-19 16:05:25
N5TEX-1 15 2017-07-14 12:34:43 2017-07-19 15:57:20 EM26DD > EM16WD 19.5 miles 267° 2017-07-14 12:52:12
WB5CYX-1 41 2017-07-14 16:48:37 2017-07-19 11:37:15 EM36SF > EM36JE 42.7 miles 265° 2017-07-19 10:40:55
FOXX 1 2017-07-18 21:26:30 2017-07-18 21:26:30 EM36VG > EM35UT 30.6 miles 185° 2017-07-18 21:26:30
NORMAN 34 2017-07-14 09:46:53 2017-07-19 17:34:09 EM15BM > EM15HF 37.4 miles 121° 2017-07-19 17:34:09
ARKAN 12 2017-07-14 14:36:21 2017-07-19 14:03:36 EM26WC > EM26VE 6.1 miles 326° 2017-07-14 15:17:59
W5GDL-5 31 2017-07-14 09:43:54 2017-07-19 17:38:34 EM15MR > EM15FL 36.3 miles 243° 2017-07-14 11:14:41
DEPEW 25 2017-07-14 11:16:45 2017-07-19 16:45:19 EM16XB > EM15RT 33.1 miles 237° 2017-07-14 11:58:53
K5HRA-10 2 2017-07-14 13:12:43 2017-07-19 15:15:50 EM26HE > EM26GE 2.5 miles 276° 2017-07-19 15:15:50
KF5VDY-10 34 2017-07-14 11:55:35 2017-07-19 15:45:32 EM26LF > EM26DI 42.0 miles 282° 2017-07-14 13:50:44

Only position packets which were originated by the station are shown here. The range statistics show some extra long hops, because some digipeaters do not correctly add themselves to the digipeater path. Please check the raw packets.
About this site
This page shows real-time information collected from the Automatic Position Reporting System Internet network (APRS-IS). APRS is used by amateur (ham) radio operators to transmit real-time position information, weather data, telemetry and messages over the radio. A vehicle equipped with a GPS receiver, a VHF transmitter or HF transceiver and a small computer device called a tracker transmits it's location, speed and course in a small data packet, which is then received by a nearby iGate receiving site which forwards the packet on the Internet. Systems connected to the Internet can send information on the APRS-IS without a radio transmitter, or collect and display information transmitted anywhere in the world.
FAQ · Blog · Discussion group · Linking to aprs.fi · AIS sites · Service status · Database statistics · Advertising on aprs.fi · Technical details · API · Change log · Planned changes · Credits and thanks · Terms Of Service · iPhone/iPad APRS